sensor_id;sensor_type;location;lat;lon;timestamp;temperature;humidity
1337;DHT22;662;48.814;9.318;2023-08-06T00:01:50;19.20;71.20
1337;DHT22;662;48.814;9.318;2023-08-06T00:04:16;19.20;71.10
1337;DHT22;662;48.814;9.318;2023-08-06T00:06:41;19.20;71.00
1337;DHT22;662;48.814;9.318;2023-08-06T00:09:07;19.20;70.90
1337;DHT22;662;48.814;9.318;2023-08-06T00:11:33;19.20;71.00
1337;DHT22;662;48.814;9.318;2023-08-06T00:13:58;19.20;71.00
1337;DHT22;662;48.814;9.318;2023-08-06T00:16:24;19.20;71.00
1337;DHT22;662;48.814;9.318;2023-08-06T00:18:50;19.20;71.00
1337;DHT22;662;48.814;9.318;2023-08-06T00:21:16;19.20;71.10
1337;DHT22;662;48.814;9.318;2023-08-06T00:23:42;19.20;71.10
1337;DHT22;662;48.814;9.318;2023-08-06T00:26:07;19.20;71.00
1337;DHT22;662;48.814;9.318;2023-08-06T00:28:33;19.10;70.90
1337;DHT22;662;48.814;9.318;2023-08-06T00:30:59;19.10;71.00
1337;DHT22;662;48.814;9.318;2023-08-06T00:33:25;19.10;71.10
1337;DHT22;662;48.814;9.318;2023-08-06T00:35:51;19.10;71.20
1337;DHT22;662;48.814;9.318;2023-08-06T00:38:16;19.00;71.10
1337;DHT22;662;48.814;9.318;2023-08-06T00:40:42;19.00;71.30
1337;DHT22;662;48.814;9.318;2023-08-06T00:43:08;19.00;71.40
1337;DHT22;662;48.814;9.318;2023-08-06T00:45:37;18.90;72.10
1337;DHT22;662;48.814;9.318;2023-08-06T00:48:05;18.90;71.50
1337;DHT22;662;48.814;9.318;2023-08-06T00:50:31;18.90;71.60
1337;DHT22;662;48.814;9.318;2023-08-06T00:52:57;18.80;71.70
1337;DHT22;662;48.814;9.318;2023-08-06T00:55:23;18.80;71.90
1337;DHT22;662;48.814;9.318;2023-08-06T00:57:49;18.70;72.10
1337;DHT22;662;48.814;9.318;2023-08-06T01:00:16;18.70;72.40
1337;DHT22;662;48.814;9.318;2023-08-06T01:02:42;18.60;72.70
1337;DHT22;662;48.814;9.318;2023-08-06T01:05:08;18.60;72.80
1337;DHT22;662;48.814;9.318;2023-08-06T01:07:43;18.60;72.90
1337;DHT22;662;48.814;9.318;2023-08-06T01:15:55;18.60;73.10
1337;DHT22;662;48.814;9.318;2023-08-06T01:18:23;18.50;72.90
1337;DHT22;662;48.814;9.318;2023-08-06T01:20:48;18.50;72.90
1337;DHT22;662;48.814;9.318;2023-08-06T01:23:15;18.50;73.00
1337;DHT22;662;48.814;9.318;2023-08-06T01:31:12;18.50;72.80
1337;DHT22;662;48.814;9.318;2023-08-06T01:33:44;18.40;72.70
1337;DHT22;662;48.814;9.318;2023-08-06T01:36:10;18.40;72.90
1337;DHT22;662;48.814;9.318;2023-08-06T01:38:36;18.40;73.10
1337;DHT22;662;48.814;9.318;2023-08-06T01:41:02;18.40;73.10
1337;DHT22;662;48.814;9.318;2023-08-06T01:43:27;18.40;73.20
1337;DHT22;662;48.814;9.318;2023-08-06T01:45:54;18.40;73.20
1337;DHT22;662;48.814;9.318;2023-08-06T01:48:20;18.40;73.20
1337;DHT22;662;48.814;9.318;2023-08-06T01:50:45;18.40;73.10
1337;DHT22;662;48.814;9.318;2023-08-06T01:53:11;18.40;73.00
1337;DHT22;662;48.814;9.318;2023-08-06T01:55:36;18.50;73.10
1337;DHT22;662;48.814;9.318;2023-08-06T01:58:02;18.50;73.10
1337;DHT22;662;48.814;9.318;2023-08-06T02:00:28;18.50;73.00
1337;DHT22;662;48.814;9.318;2023-08-06T02:02:54;18.40;72.70
1337;DHT22;662;48.814;9.318;2023-08-06T02:05:19;18.40;72.70
1337;DHT22;662;48.814;9.318;2023-08-06T02:07:45;18.40;72.70
1337;DHT22;662;48.814;9.318;2023-08-06T02:10:11;18.30;73.20
1337;DHT22;662;48.814;9.318;2023-08-06T02:12:37;18.30;72.30
1337;DHT22;662;48.814;9.318;2023-08-06T02:15:03;18.30;72.10
1337;DHT22;662;48.814;9.318;2023-08-06T02:17:28;18.30;71.90
1337;DHT22;662;48.814;9.318;2023-08-06T02:19:55;18.20;71.70
1337;DHT22;662;48.814;9.318;2023-08-06T02:22:21;18.20;71.70
1337;DHT22;662;48.814;9.318;2023-08-06T02:24:49;18.10;71.70
1337;DHT22;662;48.814;9.318;2023-08-06T02:27:15;18.10;71.90
1337;DHT22;662;48.814;9.318;2023-08-06T02:29:40;18.00;72.10
1337;DHT22;662;48.814;9.318;2023-08-06T02:32:07;18.00;72.30
1337;DHT22;662;48.814;9.318;2023-08-06T02:34:34;17.90;72.40
1337;DHT22;662;48.814;9.318;2023-08-06T02:37:00;17.90;72.40
1337;DHT22;662;48.814;9.318;2023-08-06T02:39:25;17.80;72.20
1337;DHT22;662;48.814;9.318;2023-08-06T02:41:51;17.70;71.70
1337;DHT22;662;48.814;9.318;2023-08-06T02:44:16;17.70;71.70
1337;DHT22;662;48.814;9.318;2023-08-06T02:46:44;17.60;71.50
1337;DHT22;662;48.814;9.318;2023-08-06T02:49:10;17.60;71.50
1337;DHT22;662;48.814;9.318;2023-08-06T02:51:36;17.60;71.60
1337;DHT22;662;48.814;9.318;2023-08-06T02:54:01;17.50;71.50
1337;DHT22;662;48.814;9.318;2023-08-06T02:56:27;17.50;71.60
1337;DHT22;662;48.814;9.318;2023-08-06T02:58:52;17.60;71.50
1337;DHT22;662;48.814;9.318;2023-08-06T03:01:18;17.50;71.20
1337;DHT22;662;48.814;9.318;2023-08-06T03:03:43;17.40;70.90
1337;DHT22;662;48.814;9.318;2023-08-06T03:06:09;17.40;71.00
1337;DHT22;662;48.814;9.318;2023-08-06T03:08:35;17.30;70.50
1337;DHT22;662;48.814;9.318;2023-08-06T03:11:01;17.30;70.40
1337;DHT22;662;48.814;9.318;2023-08-06T03:13:27;17.30;70.10
1337;DHT22;662;48.814;9.318;2023-08-06T03:15:54;17.20;70.10
1337;DHT22;662;48.814;9.318;2023-08-06T03:18:21;17.20;70.20
1337;DHT22;662;48.814;9.318;2023-08-06T03:20:47;17.10;70.00
1337;DHT22;662;48.814;9.318;2023-08-06T03:23:12;17.10;70.00
1337;DHT22;662;48.814;9.318;2023-08-06T03:25:38;17.10;69.70
1337;DHT22;662;48.814;9.318;2023-08-06T03:28:03;17.10;69.80
1337;DHT22;662;48.814;9.318;2023-08-06T03:30:29;17.10;70.00
1337;DHT22;662;48.814;9.318;2023-08-06T03:32:55;17.00;70.00
1337;DHT22;662;48.814;9.318;2023-08-06T03:35:21;17.10;69.90
1337;DHT22;662;48.814;9.318;2023-08-06T03:37:47;17.10;69.60
1337;DHT22;662;48.814;9.318;2023-08-06T03:40:13;17.10;69.70
1337;DHT22;662;48.814;9.318;2023-08-06T03:42:40;17.10;69.60
1337;DHT22;662;48.814;9.318;2023-08-06T03:45:06;17.10;69.50
1337;DHT22;662;48.814;9.318;2023-08-06T03:47:31;17.10;69.40
1337;DHT22;662;48.814;9.318;2023-08-06T03:49:57;17.10;69.30
1337;DHT22;662;48.814;9.318;2023-08-06T03:52:23;17.10;69.20
1337;DHT22;662;48.814;9.318;2023-08-06T03:54:48;17.10;69.70
1337;DHT22;662;48.814;9.318;2023-08-06T03:57:14;17.10;70.00
1337;DHT22;662;48.814;9.318;2023-08-06T03:59:39;17.10;70.20
1337;DHT22;662;48.814;9.318;2023-08-06T04:02:05;17.10;70.20
1337;DHT22;662;48.814;9.318;2023-08-06T04:04:31;17.10;70.20
1337;DHT22;662;48.814;9.318;2023-08-06T04:06:59;17.10;70.40
1337;DHT22;662;48.814;9.318;2023-08-06T04:09:25;17.00;70.50
1337;DHT22;662;48.814;9.318;2023-08-06T04:11:50;17.00;70.60
1337;DHT22;662;48.814;9.318;2023-08-06T04:14:16;17.00;70.60
1337;DHT22;662;48.814;9.318;2023-08-06T04:16:41;17.00;70.70
1337;DHT22;662;48.814;9.318;2023-08-06T04:19:07;17.00;71.00
1337;DHT22;662;48.814;9.318;2023-08-06T04:21:33;17.00;71.30
1337;DHT22;662;48.814;9.318;2023-08-06T04:23:59;17.00;71.60
1337;DHT22;662;48.814;9.318;2023-08-06T04:26:25;16.90;71.60
1337;DHT22;662;48.814;9.318;2023-08-06T04:28:50;16.90;71.80
1337;DHT22;662;48.814;9.318;2023-08-06T04:31:16;17.00;72.20
1337;DHT22;662;48.814;9.318;2023-08-06T04:33:42;17.00;72.30
1337;DHT22;662;48.814;9.318;2023-08-06T04:36:08;17.00;72.30
1337;DHT22;662;48.814;9.318;2023-08-06T04:38:34;16.90;72.20
1337;DHT22;662;48.814;9.318;2023-08-06T04:41:02;16.90;72.30
1337;DHT22;662;48.814;9.318;2023-08-06T04:43:29;16.90;72.40
1337;DHT22;662;48.814;9.318;2023-08-06T04:45:54;16.90;72.60
1337;DHT22;662;48.814;9.318;2023-08-06T04:48:21;16.90;72.80
1337;DHT22;662;48.814;9.318;2023-08-06T04:50:48;16.90;73.00
1337;DHT22;662;48.814;9.318;2023-08-06T04:53:14;16.90;73.10
1337;DHT22;662;48.814;9.318;2023-08-06T04:55:39;17.00;73.20
1337;DHT22;662;48.814;9.318;2023-08-06T04:58:05;17.00;73.20
1337;DHT22;662;48.814;9.318;2023-08-06T05:00:31;17.00;73.10
1337;DHT22;662;48.814;9.318;2023-08-06T05:02:58;17.00;73.00
1337;DHT22;662;48.814;9.318;2023-08-06T05:05:24;17.00;72.70
1337;DHT22;662;48.814;9.318;2023-08-06T05:07:50;17.10;72.80
1337;DHT22;662;48.814;9.318;2023-08-06T05:10:16;17.10;72.60
1337;DHT22;662;48.814;9.318;2023-08-06T05:12:41;17.10;72.50
1337;DHT22;662;48.814;9.318;2023-08-06T05:15:08;17.10;72.20
1337;DHT22;662;48.814;9.318;2023-08-06T05:17:33;17.10;72.10
1337;DHT22;662;48.814;9.318;2023-08-06T05:19:59;17.10;72.10
1337;DHT22;662;48.814;9.318;2023-08-06T05:22:25;17.20;72.30
1337;DHT22;662;48.814;9.318;2023-08-06T05:24:51;17.20;72.30
1337;DHT22;662;48.814;9.318;2023-08-06T05:27:17;17.30;72.30
1337;DHT22;662;48.814;9.318;2023-08-06T05:29:44;17.30;72.20
1337;DHT22;662;48.814;9.318;2023-08-06T05:32:10;17.30;72.20
1337;DHT22;662;48.814;9.318;2023-08-06T05:34:36;17.30;71.70
1337;DHT22;662;48.814;9.318;2023-08-06T05:37:02;17.30;71.70
1337;DHT22;662;48.814;9.318;2023-08-06T05:39:28;17.30;71.70
1337;DHT22;662;48.814;9.318;2023-08-06T05:41:53;17.30;71.80
1337;DHT22;662;48.814;9.318;2023-08-06T05:44:20;17.30;71.90
1337;DHT22;662;48.814;9.318;2023-08-06T05:46:46;17.40;71.90
1337;DHT22;662;48.814;9.318;2023-08-06T05:49:11;17.50;71.90
1337;DHT22;662;48.814;9.318;2023-08-06T05:51:39;17.60;71.90
1337;DHT22;662;48.814;9.318;2023-08-06T05:54:05;17.60;71.70
1337;DHT22;662;48.814;9.318;2023-08-06T05:56:30;17.60;70.90
1337;DHT22;662;48.814;9.318;2023-08-06T05:58:56;17.70;70.70
1337;DHT22;662;48.814;9.318;2023-08-06T06:01:22;17.70;70.40
1337;DHT22;662;48.814;9.318;2023-08-06T06:03:48;17.70;70.50
1337;DHT22;662;48.814;9.318;2023-08-06T06:06:14;17.70;70.30
1337;DHT22;662;48.814;9.318;2023-08-06T06:08:39;17.70;70.10
1337;DHT22;662;48.814;9.318;2023-08-06T06:11:05;17.80;70.30
1337;DHT22;662;48.814;9.318;2023-08-06T06:13:31;17.80;70.10
1337;DHT22;662;48.814;9.318;2023-08-06T06:15:56;17.80;69.90
1337;DHT22;662;48.814;9.318;2023-08-06T06:18:22;17.80;69.80
1337;DHT22;662;48.814;9.318;2023-08-06T06:20:48;17.70;69.40
1337;DHT22;662;48.814;9.318;2023-08-06T06:23:13;17.80;69.40
1337;DHT22;662;48.814;9.318;2023-08-06T06:25:44;17.70;69.60
1337;DHT22;662;48.814;9.318;2023-08-06T06:28:12;17.70;68.10
1337;DHT22;662;48.814;9.318;2023-08-06T06:30:37;17.60;68.00
1337;DHT22;662;48.814;9.318;2023-08-06T06:33:03;17.60;68.80
1337;DHT22;662;48.814;9.318;2023-08-06T06:35:28;17.40;69.40
1337;DHT22;662;48.814;9.318;2023-08-06T06:37:54;17.30;70.10
1337;DHT22;662;48.814;9.318;2023-08-06T06:40:20;17.20;70.90
1337;DHT22;662;48.814;9.318;2023-08-06T06:42:45;17.20;71.30
1337;DHT22;662;48.814;9.318;2023-08-06T06:45:11;17.20;71.50
1337;DHT22;662;48.814;9.318;2023-08-06T06:47:36;17.10;71.60
1337;DHT22;662;48.814;9.318;2023-08-06T06:50:02;17.20;71.90
1337;DHT22;662;48.814;9.318;2023-08-06T06:52:28;17.20;71.50
1337;DHT22;662;48.814;9.318;2023-08-06T06:54:53;17.20;71.50
1337;DHT22;662;48.814;9.318;2023-08-06T06:57:19;17.30;71.80
1337;DHT22;662;48.814;9.318;2023-08-06T06:59:44;17.30;71.70
1337;DHT22;662;48.814;9.318;2023-08-06T07:02:10;17.40;71.60
1337;DHT22;662;48.814;9.318;2023-08-06T07:04:36;17.40;70.90
1337;DHT22;662;48.814;9.318;2023-08-06T07:07:01;17.40;69.80
1337;DHT22;662;48.814;9.318;2023-08-06T07:09:27;17.50;69.80
1337;DHT22;662;48.814;9.318;2023-08-06T07:11:53;17.50;69.60
1337;DHT22;662;48.814;9.318;2023-08-06T07:14:18;17.50;69.20
1337;DHT22;662;48.814;9.318;2023-08-06T07:16:44;17.50;68.90
1337;DHT22;662;48.814;9.318;2023-08-06T07:19:09;17.40;68.90
1337;DHT22;662;48.814;9.318;2023-08-06T07:21:35;17.40;69.40
1337;DHT22;662;48.814;9.318;2023-08-06T07:24:01;17.40;69.70
1337;DHT22;662;48.814;9.318;2023-08-06T07:26:27;17.40;70.20
1337;DHT22;662;48.814;9.318;2023-08-06T07:28:52;17.40;70.50
1337;DHT22;662;48.814;9.318;2023-08-06T07:31:18;17.40;70.80
1337;DHT22;662;48.814;9.318;2023-08-06T07:33:44;17.40;70.90
1337;DHT22;662;48.814;9.318;2023-08-06T07:36:11;17.40;71.00
1337;DHT22;662;48.814;9.318;2023-08-06T07:38:37;17.50;71.50
1337;DHT22;662;48.814;9.318;2023-08-06T07:41:03;17.50;71.50
1337;DHT22;662;48.814;9.318;2023-08-06T07:43:29;17.50;70.60
1337;DHT22;662;48.814;9.318;2023-08-06T07:45:58;17.40;70.60
1337;DHT22;662;48.814;9.318;2023-08-06T07:48:24;17.30;70.70
1337;DHT22;662;48.814;9.318;2023-08-06T07:50:53;17.30;71.00
1337;DHT22;662;48.814;9.318;2023-08-06T07:53:24;17.20;71.40
1337;DHT22;662;48.814;9.318;2023-08-06T07:55:52;17.20;71.40
1337;DHT22;662;48.814;9.318;2023-08-06T07:58:18;17.10;71.60
1337;DHT22;662;48.814;9.318;2023-08-06T08:00:44;17.10;72.00
1337;DHT22;662;48.814;9.318;2023-08-06T08:03:14;17.20;71.90
1337;DHT22;662;48.814;9.318;2023-08-06T08:05:41;17.20;72.10
1337;DHT22;662;48.814;9.318;2023-08-06T08:08:06;17.30;72.10
1337;DHT22;662;48.814;9.318;2023-08-06T08:10:33;17.40;71.90
1337;DHT22;662;48.814;9.318;2023-08-06T08:13:03;17.50;72.10
1337;DHT22;662;48.814;9.318;2023-08-06T08:15:30;17.50;71.40
1337;DHT22;662;48.814;9.318;2023-08-06T08:17:56;17.70;71.50
1337;DHT22;662;48.814;9.318;2023-08-06T08:20:21;17.80;71.40
1337;DHT22;662;48.814;9.318;2023-08-06T08:22:47;18.00;70.80
1337;DHT22;662;48.814;9.318;2023-08-06T08:25:13;18.10;69.90
1337;DHT22;662;48.814;9.318;2023-08-06T08:27:39;18.20;69.40
1337;DHT22;662;48.814;9.318;2023-08-06T08:30:05;18.30;68.80
1337;DHT22;662;48.814;9.318;2023-08-06T08:32:31;18.40;68.40
1337;DHT22;662;48.814;9.318;2023-08-06T08:34:57;18.60;68.70
1337;DHT22;662;48.814;9.318;2023-08-06T08:37:23;18.70;67.40
1337;DHT22;662;48.814;9.318;2023-08-06T08:39:49;18.80;65.90
1337;DHT22;662;48.814;9.318;2023-08-06T08:42:15;18.90;65.50
1337;DHT22;662;48.814;9.318;2023-08-06T08:44:42;19.00;64.40
1337;DHT22;662;48.814;9.318;2023-08-06T08:47:09;19.00;64.90
1337;DHT22;662;48.814;9.318;2023-08-06T08:49:36;19.00;64.30
1337;DHT22;662;48.814;9.318;2023-08-06T08:52:03;19.00;64.60
1337;DHT22;662;48.814;9.318;2023-08-06T08:54:32;19.00;65.20
1337;DHT22;662;48.814;9.318;2023-08-06T08:56:58;19.10;64.70
1337;DHT22;662;48.814;9.318;2023-08-06T08:59:24;19.10;64.30
1337;DHT22;662;48.814;9.318;2023-08-06T09:01:50;19.10;63.80
1337;DHT22;662;48.814;9.318;2023-08-06T09:04:17;19.00;63.00
1337;DHT22;662;48.814;9.318;2023-08-06T09:06:46;19.00;63.30
1337;DHT22;662;48.814;9.318;2023-08-06T09:09:15;18.80;64.10
1337;DHT22;662;48.814;9.318;2023-08-06T09:11:45;18.70;65.30
1337;DHT22;662;48.814;9.318;2023-08-06T09:14:14;18.60;66.00
1337;DHT22;662;48.814;9.318;2023-08-06T09:16:40;18.50;66.40
1337;DHT22;662;48.814;9.318;2023-08-06T09:19:10;18.40;66.20
1337;DHT22;662;48.814;9.318;2023-08-06T09:21:38;18.40;66.70
1337;DHT22;662;48.814;9.318;2023-08-06T09:24:12;18.40;67.00
1337;DHT22;662;48.814;9.318;2023-08-06T09:26:40;18.40;66.50
1337;DHT22;662;48.814;9.318;2023-08-06T09:29:06;18.40;67.00
1337;DHT22;662;48.814;9.318;2023-08-06T09:31:47;18.30;66.90
1337;DHT22;662;48.814;9.318;2023-08-06T09:34:16;18.40;67.40
1337;DHT22;662;48.814;9.318;2023-08-06T09:36:45;18.60;67.40
1337;DHT22;662;48.814;9.318;2023-08-06T09:39:15;18.80;66.90
1337;DHT22;662;48.814;9.318;2023-08-06T09:41:41;18.90;65.30
1337;DHT22;662;48.814;9.318;2023-08-06T09:44:20;18.80;65.30
1337;DHT22;662;48.814;9.318;2023-08-06T09:46:59;18.70;65.20
1337;DHT22;662;48.814;9.318;2023-08-06T09:49:26;18.70;66.10
1337;DHT22;662;48.814;9.318;2023-08-06T09:51:53;18.70;66.00
1337;DHT22;662;48.814;9.318;2023-08-06T09:54:23;18.60;65.70
1337;DHT22;662;48.814;9.318;2023-08-06T09:56:48;18.60;66.30
1337;DHT22;662;48.814;9.318;2023-08-06T09:59:14;18.60;66.70
1337;DHT22;662;48.814;9.318;2023-08-06T10:01:41;18.60;66.20
1337;DHT22;662;48.814;9.318;2023-08-06T10:04:07;18.60;65.70
1337;DHT22;662;48.814;9.318;2023-08-06T10:06:34;18.60;66.20
1337;DHT22;662;48.814;9.318;2023-08-06T10:09:04;18.50;67.00
1337;DHT22;662;48.814;9.318;2023-08-06T10:11:30;18.60;67.50
1337;DHT22;662;48.814;9.318;2023-08-06T10:14:08;18.70;67.90
1337;DHT22;662;48.814;9.318;2023-08-06T10:16:36;18.70;67.20
1337;DHT22;662;48.814;9.318;2023-08-06T10:19:04;18.80;67.60
1337;DHT22;662;48.814;9.318;2023-08-06T10:21:31;18.80;67.90
1337;DHT22;662;48.814;9.318;2023-08-06T10:23:57;18.80;67.90
1337;DHT22;662;48.814;9.318;2023-08-06T10:26:29;18.90;68.50
1337;DHT22;662;48.814;9.318;2023-08-06T10:28:55;18.90;68.10
1337;DHT22;662;48.814;9.318;2023-08-06T10:32:14;19.00;66.80
1337;DHT22;662;48.814;9.318;2023-08-06T10:34:58;19.00;66.60
1337;DHT22;662;48.814;9.318;2023-08-06T10:37:36;18.90;67.10
1337;DHT22;662;48.814;9.318;2023-08-06T10:40:03;19.00;67.80
1337;DHT22;662;48.814;9.318;2023-08-06T10:42:31;19.00;68.10
1337;DHT22;662;48.814;9.318;2023-08-06T10:45:19;19.00;68.00
1337;DHT22;662;48.814;9.318;2023-08-06T10:47:45;19.00;67.80
1337;DHT22;662;48.814;9.318;2023-08-06T10:50:16;19.00;67.80
1337;DHT22;662;48.814;9.318;2023-08-06T10:52:46;19.00;66.80
1337;DHT22;662;48.814;9.318;2023-08-06T10:55:13;19.00;66.80
1337;DHT22;662;48.814;9.318;2023-08-06T10:57:39;19.00;66.40
1337;DHT22;662;48.814;9.318;2023-08-06T11:00:08;19.00;66.40
1337;DHT22;662;48.814;9.318;2023-08-06T11:02:35;19.00;65.60
1337;DHT22;662;48.814;9.318;2023-08-06T11:05:06;18.90;65.50
1337;DHT22;662;48.814;9.318;2023-08-06T11:07:32;18.90;65.60
1337;DHT22;662;48.814;9.318;2023-08-06T11:10:04;18.80;65.90
1337;DHT22;662;48.814;9.318;2023-08-06T11:12:31;18.70;66.00
1337;DHT22;662;48.814;9.318;2023-08-06T11:14:57;18.60;67.00
1337;DHT22;662;48.814;9.318;2023-08-06T11:17:23;18.50;68.10
1337;DHT22;662;48.814;9.318;2023-08-06T11:19:48;18.40;69.00
1337;DHT22;662;48.814;9.318;2023-08-06T11:22:14;18.30;69.60
1337;DHT22;662;48.814;9.318;2023-08-06T11:24:40;18.20;69.60
1337;DHT22;662;48.814;9.318;2023-08-06T11:27:13;18.20;68.70
1337;DHT22;662;48.814;9.318;2023-08-06T11:29:41;18.10;67.70
1337;DHT22;662;48.814;9.318;2023-08-06T11:32:08;18.10;67.10
1337;DHT22;662;48.814;9.318;2023-08-06T11:34:34;18.00;67.90
1337;DHT22;662;48.814;9.318;2023-08-06T11:37:02;18.00;68.20
1337;DHT22;662;48.814;9.318;2023-08-06T11:39:27;18.00;68.30
1337;DHT22;662;48.814;9.318;2023-08-06T11:41:53;18.00;68.10
1337;DHT22;662;48.814;9.318;2023-08-06T11:44:19;18.00;66.70
1337;DHT22;662;48.814;9.318;2023-08-06T11:46:55;17.90;65.90
1337;DHT22;662;48.814;9.318;2023-08-06T11:52:25;17.80;66.60
1337;DHT22;662;48.814;9.318;2023-08-06T11:55:00;17.80;66.60
1337;DHT22;662;48.814;9.318;2023-08-06T11:57:29;17.80;66.40
1337;DHT22;662;48.814;9.318;2023-08-06T12:00:01;17.80;66.60
1337;DHT22;662;48.814;9.318;2023-08-06T12:02:34;17.90;67.20
1337;DHT22;662;48.814;9.318;2023-08-06T12:05:09;17.80;66.80
1337;DHT22;662;48.814;9.318;2023-08-06T12:07:39;17.80;66.80
1337;DHT22;662;48.814;9.318;2023-08-06T12:10:06;17.70;67.30
1337;DHT22;662;48.814;9.318;2023-08-06T12:12:32;17.70;67.40
1337;DHT22;662;48.814;9.318;2023-08-06T12:14:57;17.60;67.30
1337;DHT22;662;48.814;9.318;2023-08-06T12:17:24;17.50;67.50
1337;DHT22;662;48.814;9.318;2023-08-06T12:19:50;17.50;67.90
1337;DHT22;662;48.814;9.318;2023-08-06T12:22:16;17.30;67.80
1337;DHT22;662;48.814;9.318;2023-08-06T12:24:46;17.20;68.60
1337;DHT22;662;48.814;9.318;2023-08-06T12:27:12;17.20;68.80
1337;DHT22;662;48.814;9.318;2023-08-06T12:29:42;17.10;69.10
1337;DHT22;662;48.814;9.318;2023-08-06T12:32:08;17.10;69.40
1337;DHT22;662;48.814;9.318;2023-08-06T12:34:34;17.00;69.50
1337;DHT22;662;48.814;9.318;2023-08-06T12:37:00;17.00;70.10
1337;DHT22;662;48.814;9.318;2023-08-06T12:39:25;17.00;70.00
1337;DHT22;662;48.814;9.318;2023-08-06T12:41:54;17.00;69.70
1337;DHT22;662;48.814;9.318;2023-08-06T12:44:20;17.00;69.80
1337;DHT22;662;48.814;9.318;2023-08-06T12:46:46;17.00;69.90
1337;DHT22;662;48.814;9.318;2023-08-06T12:49:12;17.00;69.30
1337;DHT22;662;48.814;9.318;2023-08-06T12:51:37;17.00;68.90
1337;DHT22;662;48.814;9.318;2023-08-06T12:54:04;17.00;68.20
1337;DHT22;662;48.814;9.318;2023-08-06T12:56:29;17.10;68.70
1337;DHT22;662;48.814;9.318;2023-08-06T12:58:55;17.20;69.10
1337;DHT22;662;48.814;9.318;2023-08-06T13:01:21;17.30;68.20
1337;DHT22;662;48.814;9.318;2023-08-06T13:03:46;17.40;66.90
1337;DHT22;662;48.814;9.318;2023-08-06T13:06:12;17.40;66.20
1337;DHT22;662;48.814;9.318;2023-08-06T13:08:38;17.40;67.40
1337;DHT22;662;48.814;9.318;2023-08-06T13:11:04;17.50;66.60
1337;DHT22;662;48.814;9.318;2023-08-06T13:13:30;17.50;66.30
1337;DHT22;662;48.814;9.318;2023-08-06T13:15:55;17.60;66.30
1337;DHT22;662;48.814;9.318;2023-08-06T13:18:21;17.60;64.00
1337;DHT22;662;48.814;9.318;2023-08-06T13:20:47;17.70;64.80
1337;DHT22;662;48.814;9.318;2023-08-06T13:23:15;17.80;65.20
1337;DHT22;662;48.814;9.318;2023-08-06T13:25:42;17.90;64.70
1337;DHT22;662;48.814;9.318;2023-08-06T13:28:08;18.00;64.60
1337;DHT22;662;48.814;9.318;2023-08-06T13:30:33;18.10;64.10
1337;DHT22;662;48.814;9.318;2023-08-06T13:33:01;18.20;63.90
1337;DHT22;662;48.814;9.318;2023-08-06T13:35:27;18.30;63.50
1337;DHT22;662;48.814;9.318;2023-08-06T13:37:52;18.20;62.40
1337;DHT22;662;48.814;9.318;2023-08-06T13:40:19;18.30;62.50
1337;DHT22;662;48.814;9.318;2023-08-06T13:42:45;18.40;61.50
1337;DHT22;662;48.814;9.318;2023-08-06T13:45:11;18.50;60.00
1337;DHT22;662;48.814;9.318;2023-08-06T13:47:36;18.50;60.40
1337;DHT22;662;48.814;9.318;2023-08-06T13:50:02;18.60;60.30
1337;DHT22;662;48.814;9.318;2023-08-06T13:52:29;18.60;60.50
1337;DHT22;662;48.814;9.318;2023-08-06T13:54:54;18.60;60.00
1337;DHT22;662;48.814;9.318;2023-08-06T13:57:20;18.60;60.00
1337;DHT22;662;48.814;9.318;2023-08-06T13:59:45;18.60;60.40
1337;DHT22;662;48.814;9.318;2023-08-06T14:02:11;18.70;60.40
1337;DHT22;662;48.814;9.318;2023-08-06T14:04:37;18.80;60.20
1337;DHT22;662;48.814;9.318;2023-08-06T14:07:03;18.70;58.40
1337;DHT22;662;48.814;9.318;2023-08-06T14:09:29;18.60;58.50
1337;DHT22;662;48.814;9.318;2023-08-06T14:11:55;18.60;58.70
1337;DHT22;662;48.814;9.318;2023-08-06T14:14:21;18.60;59.30
1337;DHT22;662;48.814;9.318;2023-08-06T14:16:52;18.60;59.40
1337;DHT22;662;48.814;9.318;2023-08-06T14:19:18;18.60;59.40
1337;DHT22;662;48.814;9.318;2023-08-06T14:21:43;18.60;59.90
1337;DHT22;662;48.814;9.318;2023-08-06T14:24:09;18.50;60.20
1337;DHT22;662;48.814;9.318;2023-08-06T14:26:34;18.50;61.20
1337;DHT22;662;48.814;9.318;2023-08-06T14:29:01;18.50;61.60
1337;DHT22;662;48.814;9.318;2023-08-06T14:31:26;18.50;61.40
1337;DHT22;662;48.814;9.318;2023-08-06T14:33:52;18.50;61.00
1337;DHT22;662;48.814;9.318;2023-08-06T14:36:18;18.50;61.20
1337;DHT22;662;48.814;9.318;2023-08-06T14:38:44;18.60;61.10
1337;DHT22;662;48.814;9.318;2023-08-06T14:41:09;18.60;60.50
1337;DHT22;662;48.814;9.318;2023-08-06T14:43:36;18.70;60.70
1337;DHT22;662;48.814;9.318;2023-08-06T14:46:01;18.70;60.20
1337;DHT22;662;48.814;9.318;2023-08-06T14:48:27;18.80;60.40
1337;DHT22;662;48.814;9.318;2023-08-06T14:50:54;18.90;60.50
1337;DHT22;662;48.814;9.318;2023-08-06T14:53:19;18.90;60.20
1337;DHT22;662;48.814;9.318;2023-08-06T14:55:45;18.90;60.10
1337;DHT22;662;48.814;9.318;2023-08-06T14:58:11;18.90;60.20
1337;DHT22;662;48.814;9.318;2023-08-06T15:00:37;18.90;60.40
1337;DHT22;662;48.814;9.318;2023-08-06T15:03:03;18.80;60.30
1337;DHT22;662;48.814;9.318;2023-08-06T15:05:29;18.70;60.90
1337;DHT22;662;48.814;9.318;2023-08-06T15:07:54;18.60;61.30
1337;DHT22;662;48.814;9.318;2023-08-06T15:10:20;18.50;61.80
1337;DHT22;662;48.814;9.318;2023-08-06T15:12:49;18.50;61.50
1337;DHT22;662;48.814;9.318;2023-08-06T15:15:14;18.30;61.60
1337;DHT22;662;48.814;9.318;2023-08-06T15:17:40;18.30;62.00
1337;DHT22;662;48.814;9.318;2023-08-06T15:20:07;18.20;62.30
1337;DHT22;662;48.814;9.318;2023-08-06T15:22:33;18.10;62.40
1337;DHT22;662;48.814;9.318;2023-08-06T15:25:02;18.00;62.00
1337;DHT22;662;48.814;9.318;2023-08-06T15:27:29;18.00;62.70
1337;DHT22;662;48.814;9.318;2023-08-06T15:29:55;17.90;62.80
1337;DHT22;662;48.814;9.318;2023-08-06T15:32:20;17.90;62.90
1337;DHT22;662;48.814;9.318;2023-08-06T15:34:48;17.90;63.00
1337;DHT22;662;48.814;9.318;2023-08-06T15:37:13;17.90;63.40
1337;DHT22;662;48.814;9.318;2023-08-06T15:39:39;17.90;62.60
1337;DHT22;662;48.814;9.318;2023-08-06T15:42:06;17.80;61.90
1337;DHT22;662;48.814;9.318;2023-08-06T15:44:31;17.80;62.20
1337;DHT22;662;48.814;9.318;2023-08-06T15:46:57;17.80;62.20
1337;DHT22;662;48.814;9.318;2023-08-06T15:49:23;17.90;62.60
1337;DHT22;662;48.814;9.318;2023-08-06T15:51:48;17.80;62.60
1337;DHT22;662;48.814;9.318;2023-08-06T15:54:15;17.90;62.30
1337;DHT22;662;48.814;9.318;2023-08-06T15:56:40;17.90;62.50
1337;DHT22;662;48.814;9.318;2023-08-06T15:59:27;17.90;62.90
1337;DHT22;662;48.814;9.318;2023-08-06T16:01:53;17.90;61.80
1337;DHT22;662;48.814;9.318;2023-08-06T16:04:18;17.90;61.40
1337;DHT22;662;48.814;9.318;2023-08-06T16:06:44;17.90;60.60
1337;DHT22;662;48.814;9.318;2023-08-06T16:09:10;17.90;60.60
1337;DHT22;662;48.814;9.318;2023-08-06T16:11:36;17.90;60.50
1337;DHT22;662;48.814;9.318;2023-08-06T16:14:01;17.90;60.90
1337;DHT22;662;48.814;9.318;2023-08-06T16:16:27;17.90;60.60
1337;DHT22;662;48.814;9.318;2023-08-06T16:18:53;18.00;59.90
1337;DHT22;662;48.814;9.318;2023-08-06T16:21:19;17.90;59.60
1337;DHT22;662;48.814;9.318;2023-08-06T16:23:44;18.00;59.70
1337;DHT22;662;48.814;9.318;2023-08-06T16:26:10;18.00;59.50
1337;DHT22;662;48.814;9.318;2023-08-06T16:28:36;18.00;59.00